Terminal Aerodrome Forecast
Issued by NWS Lake Charles, LA

Home | Current Version | Previous Version | Text Only | Print | Product List | Glossary On
Versions: 1 2 3 4 5 6 7 8 9 10 11 12 13 14 15 16 17 18
000
FTUS44 KLCH 291741
TAFBPT
TAF
KBPT 291741Z 2918/3018 17014KT P6SM SCT029
     FM292000 18012KT P6SM VCTS SCT025CB BKN040 BKN140
     FM300000 17004KT P6SM SCT120
     FM300700 15003KT P6SM SCT030
     FM301000 VRB05KT P6SM BKN025
     FM301600 32004KT P6SM BKN030 OVC170=

USA.gov is the U.S. government's official web portal to all federal, state and local government web resources and services.